Lorain, OH (44052)

1:31 AM EDT on August 28, 2015 (GMT -0400)
Lorain - Lakefront | | Change Station
CLOSE
Current Station
Personal Weather Station
Location: Lorain, OH
Elevation: 580 ft
Nearby Weather Stations

Elev 580 ft 41.47 °N, 82.19 °W | Updated 4 seconds ago

Clear
Clear
58.8 °F
Feels Like 58.8 °F
N
0.0
Wind Variable Wind from NNE
Gusts 0.0 mph

Today
High -- | Low -- °F
--% Chance of Precip.
Yesterday
High -- | Low -- °F
Precip. -- in
6:50 AM 8:08 PM
Waxing Gibbous, 96% visible
Pressure 30.19 in
Visibility 3.0 miles
Clouds Clear
Dew Point 48 °F
Humidity 68%
Rainfall 0.00 in
Snow Depth Not available.
UV 0 out of 12
Pollen 9.00 out of 12
Air Quality Not available.
Flu Activity Not available.
SPECI KLPR 280514Z AUTO 00000KT 3SM BR CLR 11/11 A3019 RMK AO2 T01110106 TSNO
Pressure 30.19 in
Visibility 3.0 miles
Clouds Clear
Dew Point 48 °F
Humidity 68%
Rainfall 0.00 in
Snow Depth Not available.
UV 0 out of 12
Pollen 9.00 out of 12
Air Quality Not available.
Flu Activity Not available.
SPECI KLPR 280514Z AUTO 00000KT 3SM BR CLR 11/11 A3019 RMK AO2 T01110106 TSNO

10-Day Weather Forecast

×

Almanac

Astronomy

Aug. 28, 2015 Rise Set
Actual Time
Civil Twilight
Nautical Twilight
Astronomical Twilight
Moon
Length of Visible Light
Length of Day
Tomorrow will be .
, % of the Moon is Illuminated

Today's Extremes

State Highs State Lows

Community

WunderPhotos

Upload Photos

1,850,341 photos uploaded!

WunderBlogs® & News

Nearby

Air Quality

  Air Quality AQ Index Pollutant
Not available.

Snow Depth

Station Depth Elevation

Earthquake Activity

City Distance Mag. Time & Date
Minimum magnitude displayed is 2.5.

Coastal Water Temperatures

Place Temperature

Stations

Nearby Weather Stations

Station Location Temp. Windchill Dew Point Humidity Wind Precip. Elev Updated Type